Latest Weather Observations for Rutherglen

IDV60801

Issued at 11:02 pm EST Friday 31 July 2015 (issued every 30 minutes, with the page automatically refreshed every 10 minutes)

About weather observations | Map of weather stations | Latest weather observations for VIC | Other Formats
Station Details ID: 082039 Name: RUTHERGLEN RESEARCH Lat: -36.10 Lon: 146.51 Height: 175.0 m
Data from the previous 72 hours. | See also: Recent months at Rutherglen
Date/Time
EST
Temp
°C
App
Temp
°C
Dew
Point
Rel
Hum
%
Delta-T
°C
Wind Press
QNH
hPa
Press
MSL
hPa
Rain
since 9 am
mm
Dir
 
Spd
km/h
Gust
km/h
Spd
kts
Gust
kts
31/11:00pm 5.1 2.3 5.1 100 0.0 E 9 13 5 7 - - 0.0
31/10:30pm 5.0 2.5 4.9 99 0.0 E 7 11 4 6 - - 0.0
31/10:00pm 4.5 1.6 4.5 100 0.0 E 9 13 5 7 - - 0.0
31/09:30pm 5.3 2.9 5.2 99 0.0 NE 7 9 4 5 - - 0.0
31/09:00pm 6.5 4.4 5.9 96 0.3 ENE 6 7 3 4 - - 0.0
31/08:30pm 6.8 4.9 6.7 99 0.0 NE 6 9 3 5 - - 0.0
31/08:00pm 6.8 4.9 6.7 99 0.0 N 6 13 3 7 - - 0.0
31/07:30pm 4.4 2.4 4.3 99 0.0 NE 4 7 2 4 - - 0.0
31/07:00pm 4.8 2.4 4.1 95 0.3 ENE 6 7 3 4 - - 0.0
31/06:30pm 7.1 4.9 5.4 89 0.8 NE 6 7 3 4 - - 0.0
31/06:00pm 8.3 6.3 6.1 86 1.0 NE 6 9 3 5 - - 0.0
31/05:30pm 8.8 6.8 6.2 84 1.2 NE 6 9 3 5 - - 0.0
31/05:00pm 10.1 8.1 6.1 76 1.9 NE 6 11 3 6 - - 0.0
31/04:30pm 10.5 7.9 6.3 75 2.0 NNE 9 17 5 9 - - 0.0
31/04:00pm 11.7 8.8 6.4 70 2.5 NNE 11 17 6 9 - - 0.0
31/03:30pm 12.8 10.4 6.8 67 2.9 N 9 17 5 9 - - 0.0
31/03:00pm 12.1 8.8 6.2 67 2.8 NNE 13 19 7 10 - - 0.0
31/02:30pm 12.6 9.8 6.9 68 2.8 NNE 11 17 6 9 - - 0.0
31/02:00pm 11.5 9.0 6.6 72 2.3 NNE 9 15 5 8 - - 0.0
31/01:30pm 12.5 10.1 7.0 69 2.7 NNE 9 13 5 7 - - 0.0
31/01:00pm 12.7 10.9 7.2 69 2.7 NNE 6 11 3 6 - - 0.0
31/12:30pm 11.8 9.9 6.9 72 2.4 SW 6 9 3 5 - - 0.0
31/12:00pm 11.5 10.0 8.4 81 1.5 N 6 9 3 5 - - 0.0
31/11:30am 9.9 9.2 8.7 92 0.6 NNW 2 6 1 3 - - 0.0
31/11:00am 9.7 9.3 9.6 99 0.1 SW 2 7 1 4 - - 0.0
31/10:30am 8.9 7.3 8.9 100 0.0 W 7 11 4 6 - - 0.0
31/10:00am 8.9 8.7 8.9 100 0.0 CALM 0 0 0 0 - - 0.0
31/09:30am 7.9 7.4 7.9 100 0.0 CALM 0 0 0 0 - - 0.0
31/09:00am 7.6 6.3 7.6 100 0.0 W 4 7 2 4 - - 0.0
31/08:30am 7.0 5.9 7.0 100 0.0 W 2 6 1 3 - - 0.0
31/08:00am 6.1 4.1 6.1 100 0.0 WSW 6 7 3 4 - - 0.0
31/07:30am 3.9 2.6 3.9 100 0.0 CALM 0 0 0 0 - - 0.0
31/07:00am 4.6 3.4 4.6 100 0.0 CALM 0 0 0 0 - - 0.0
31/06:30am 6.7 5.6 6.7 100 0.0 WNW 2 6 1 3 - - 0.0
31/06:00am 7.6 6.7 7.6 100 0.0 W 2 6 1 3 - - 0.0
31/05:30am 7.9 7.4 7.9 100 0.0 CALM 0 0 0 0 - - 0.0
31/05:00am 7.9 6.7 7.9 100 0.0 WNW 4 6 2 3 - - 0.0
31/04:30am 7.5 6.2 7.5 100 0.0 SW 4 6 2 3 - - 0.0
31/04:00am 7.0 5.9 7.0 100 0.0 WSW 2 7 1 4 - - 0.0
31/03:30am 7.0 6.3 7.0 100 0.0 CALM 0 6 0 3 - - 0.0
31/03:00am 8.0 7.5 7.9 99 0.0 CALM 0 0 0 0 - - 0.0
31/02:30am 8.2 7.8 8.1 99 0.0 CALM 0 0 0 0 - - 0.0
31/02:00am 8.3 6.7 8.0 98 0.1 ENE 6 7 3 4 - - 0.0
31/01:30am 8.3 6.7 7.9 97 0.2 ENE 6 7 3 4 - - 0.0
31/01:00am 8.6 7.0 7.8 95 0.4 NE 6 9 3 5 - - 0.0
31/12:30am 8.6 6.8 8.0 96 0.3 NE 7 11 4 6 - - 0.0
31/12:00am 8.5 6.9 7.9 96 0.3 ENE 6 7 3 4 - - 0.0
 
Date/Time
EST
Temp
°C
App
Temp
°C
Dew
Point
Rel
Hum
%
Delta-T
°C
Wind Press
QNH
hPa
Press
MSL
hPa
Rain
since 9 am
mm
Dir
 
Spd
km/h
Gust
km/h
Spd
kts
Gust
kts
30/11:30pm 8.3 6.6 8.2 99 0.0 E 7 11 4 6 - - 0.0
30/11:00pm 8.5 6.9 8.1 97 0.2 ESE 6 9 3 5 - - 0.0
30/10:30pm 8.6 6.6 8.5 99 0.0 NE 9 15 5 8 - - 0.0
30/10:00pm 7.9 6.1 7.8 99 0.0 E 7 9 4 5 - - 0.0
30/09:30pm 8.2 6.6 8.1 99 0.0 E 6 9 3 5 - - 0.0
30/09:00pm 7.6 6.6 7.5 99 0.0 ENE 2 9 1 5 - - 0.0
30/08:30pm 7.8 6.0 7.8 100 0.0 NE 7 9 4 5 - - 0.0
30/08:00pm 8.1 7.6 7.8 98 0.1 CALM 0 6 0 3 - - 0.0
30/07:30pm 8.8 8.2 7.3 90 0.7 CALM 0 0 0 0 - - 0.0
30/07:00pm 8.8 7.7 6.9 88 0.9 NE 2 6 1 3 - - 0.0
30/06:30pm 9.1 7.1 6.9 86 1.0 NE 7 13 4 7 - - 0.0
30/06:00pm 9.3 6.9 6.9 85 1.1 NE 9 13 5 7 - - 0.0
30/05:30pm 9.5 7.4 6.6 82 1.4 NE 7 11 4 6 - - 0.0
30/05:00pm 10.0 8.0 6.9 81 1.5 N 7 13 4 7 - - 0.0
30/04:30pm 10.3 8.3 7.2 81 1.5 NNW 7 13 4 7 - - 0.0
30/04:00pm 10.6 8.2 6.9 78 1.8 NNW 9 13 5 7 - - 0.0
30/03:30pm 10.7 7.8 6.6 76 1.9 NNW 11 19 6 10 - - 0.0
30/03:00pm 11.2 8.5 7.5 78 1.8 N 11 19 6 10 - - 0.0
30/02:30pm 10.7 8.4 7.4 80 1.6 N 9 17 5 9 - - 0.0
30/02:00pm 10.9 7.4 7.4 79 1.7 N 15 20 8 11 - - 0.0
30/01:30pm 11.0 8.4 7.9 81 1.5 NNW 11 17 6 9 - - 0.0
30/01:00pm 11.2 8.5 7.3 77 1.9 NNW 11 19 6 10 - - 0.0
30/12:30pm 11.1 8.1 7.6 79 1.7 NNW 13 20 7 11 - - 0.0
30/12:00pm 11.2 8.2 7.9 80 1.6 N 13 22 7 12 - - 0.0
30/11:30am 10.9 7.9 7.6 80 1.6 NNE 13 19 7 10 - - 0.0
30/11:00am 10.9 8.8 8.1 83 1.4 NNE 9 15 5 8 - - 0.0
30/10:30am 10.6 8.1 8.2 85 1.2 NE 11 19 6 10 - - 0.0
30/10:00am 9.2 6.9 7.3 88 0.9 NE 9 15 5 8 - - 0.0
30/09:30am 8.8 6.1 7.4 91 0.7 NE 11 17 6 9 - - 0.0
30/09:00am 8.3 5.8 8.0 98 0.1 ENE 11 17 6 9 - - 0.0
30/08:30am 7.3 5.3 7.3 100 0.0 ENE 7 13 4 7 - - 0.0
30/08:00am 6.1 4.4 6.1 100 0.0 E 4 7 2 4 - - 0.0
30/07:30am 5.8 4.5 5.8 100 0.0 NE 2 6 1 3 - - 0.0
30/07:00am 5.6 3.5 5.6 100 0.0 E 6 7 3 4 - - 0.0
30/06:30am 5.9 5.0 5.9 100 0.0 CALM 0 0 0 0 - - 0.0
30/06:00am 5.9 4.6 5.9 100 0.0 E 2 7 1 4 - - 0.0
30/05:30am 6.2 4.2 6.2 100 0.0 ENE 6 7 3 4 - - 0.0
30/05:00am 6.1 5.2 6.1 100 0.0 CALM 0 0 0 0 - - 0.0
30/04:30am 5.6 4.6 5.6 100 0.0 CALM 0 0 0 0 - - 0.0
30/04:00am 5.3 2.9 5.3 100 0.0 ENE 7 7 4 4 - - 0.0
30/03:30am 4.8 2.5 4.8 100 0.0 ESE 6 7 3 4 - - 0.0
30/03:00am 4.5 2.1 4.5 100 0.0 SSE 6 7 3 4 - - 0.0
30/02:30am 4.8 3.3 4.8 100 0.0 ENE 2 6 1 3 - - 0.0
30/02:00am 5.1 2.9 5.1 100 0.0 E 6 6 3 3 - - 0.0
30/01:30am 4.9 3.4 4.9 100 0.0 NE 2 6 1 3 - - 0.0
30/01:00am 4.8 3.6 4.8 100 0.0 CALM 0 0 0 0 - - 0.0
30/12:30am 4.7 2.8 4.7 100 0.0 NNW 4 9 2 5 - - 0.0
30/12:00am 4.9 3.8 4.9 100 0.0 CALM 0 0 0 0 - - 0.0
 
Date/Time
EST
Temp
°C
App
Temp
°C
Dew
Point
Rel
Hum
%
Delta-T
°C
Wind Press
QNH
hPa
Press
MSL
hPa
Rain
since 9 am
mm
Dir
 
Spd
km/h
Gust
km/h
Spd
kts
Gust
kts
29/11:30pm 4.7 3.5 4.7 100 0.0 CALM 0 0 0 0 - - 0.0
29/11:00pm 4.5 3.3 4.5 100 0.0 CALM 0 0 0 0 - - 0.0
29/10:30pm 4.0 2.7 4.0 100 0.0 CALM 0 0 0 0 - - 0.0
29/10:00pm 3.5 2.1 3.5 100 0.0 CALM 0 0 0 0 - - 0.0
29/09:30pm 4.2 2.5 4.2 100 0.0 SSE 2 6 1 3 - - 0.0
29/09:00pm 4.5 3.3 4.5 100 0.0 CALM 0 0 0 0 - - 0.0
29/08:30pm 3.7 0.6 3.7 100 0.0 E 9 13 5 7 - - 0.0
29/08:00pm 4.3 3.0 4.3 100 0.0 CALM 0 6 0 3 - - 0.0
29/07:30pm 3.7 2.3 3.7 100 0.0 CALM 0 6 0 3 - - 0.0
29/07:00pm 3.0 1.1 3.0 100 0.0 WNW 2 9 1 5 - - 0.0
29/06:30pm 4.5 2.9 4.5 100 0.0 WNW 2 6 1 3 - - 0.0
29/06:00pm 6.4 5.6 6.4 100 0.0 CALM 0 0 0 0 - - 0.0
29/05:30pm 7.5 6.9 7.4 99 0.0 CALM 0 0 0 0 - - 0.0
29/05:00pm 8.0 6.3 7.6 97 0.2 ESE 6 7 3 4 - - 0.0
29/04:30pm 9.4 7.5 6.7 83 1.3 WSW 6 7 3 4 - - 0.0
29/04:00pm 10.8 8.3 6.7 76 2.0 WNW 9 13 5 7 - - 0.0
29/03:30pm 11.7 9.8 6.8 72 2.4 W 6 9 3 5 - - 0.0
29/03:00pm 11.3 9.7 8.0 80 1.6 NNW 6 7 3 4 - - 0.0
29/02:30pm 10.7 9.2 7.0 78 1.8 N 4 7 2 4 - - 0.0
29/02:00pm 10.7 9.1 8.1 84 1.3 ENE 6 9 3 5 - - 0.0
29/01:30pm 9.7 7.9 8.1 90 0.8 NNW 7 9 4 5 - - 0.0
29/01:00pm 9.6 8.1 9.1 97 0.2 NNW 7 11 4 6 - - 0.0
29/12:30pm 9.6 7.5 8.4 92 0.6 N 9 13 5 7 - - 0.0
29/12:00pm 9.5 7.2 8.9 96 0.3 NNE 11 17 6 9 - - 0.0
29/11:30am 9.0 7.1 9.0 100 0.0 NE 9 13 5 7 - - 0.0
29/11:00am 7.6 5.3 7.6 100 0.0 E 9 13 5 7 - - 0.0
29/10:30am 6.1 3.9 6.1 100 0.0 ENE 7 13 4 7 - - 0.0
29/10:00am 5.0 2.5 5.0 100 0.0 NE 7 9 4 5 - - 0.0
29/09:30am 3.9 1.4 3.9 100 0.0 NNE 6 9 3 5 - - 0.0
29/09:00am 2.5 0.9 2.5 100 0.0 CALM 0 0 0 0 - - 0.2
29/08:30am -0.2 -2.2 -0.2 100 0.0 CALM 0 0 0 0 - - 0.0
29/08:00am -1.7 -3.9 -1.7 100 0.0 CALM 0 0 0 0 - - 0.0
29/07:30am -1.6 -3.8 -1.6 100 0.0 CALM 0 0 0 0 - - 0.0
29/07:00am -2.0 -4.3 -2.0 100 0.0 CALM 0 0 0 0 - - 0.0
29/06:30am -2.1 -4.4 -2.1 100 0.0 CALM 0 0 0 0 - - 0.0
29/06:00am -1.9 -4.1 -1.9 100 0.0 CALM 0 0 0 0 - - 0.0
29/05:30am -1.6 -3.8 -1.6 100 0.0 CALM 0 0 0 0 - - 0.0
29/05:00am -1.5 -3.7 -1.5 100 0.0 CALM 0 0 0 0 - - 0.0
29/04:30am -1.5 -3.7 -1.5 100 0.0 CALM 0 0 0 0 - - 0.0
29/04:00am -1.1 -4.0 -1.1 100 0.0 SSE 4 6 2 3 - - 0.0
29/03:30am -1.2 -4.5 -1.2 100 0.0 SSE 6 6 3 3 - - 0.0
29/03:00am -1.1 -3.2 -1.1 100 0.0 CALM 0 0 0 0 - - 0.0
29/02:30am -1.3 -3.5 -1.3 100 0.0 CALM 0 0 0 0 - - 0.0
29/02:00am -1.2 -3.4 -1.2 100 0.0 CALM 0 0 0 0 - - 0.0
29/01:30am -0.4 -2.4 -0.4 100 0.0 CALM 0 0 0 0 - - 0.0
29/01:00am -0.5 -2.6 -0.5 100 0.0 CALM 0 0 0 0 - - 0.0
29/12:30am -0.6 -2.7 -0.6 100 0.0 CALM 0 0 0 0 - - 0.0
29/12:00am -0.7 -2.8 -0.7 100 0.0 CALM 0 0 0 0 - - 0.0
 
Date/Time
EST
Temp
°C
App
Temp
°C
Dew
Point
Rel
Hum
%
Delta-T
°C
Wind Press
QNH
hPa
Press
MSL
hPa
Rain
since 9 am
mm
Dir
 
Spd
km/h
Gust
km/h
Spd
kts
Gust
kts
28/11:30pm -0.3 -2.7 -0.3 100 0.0 ESE 2 6 1 3 - - 0.0

Other Formats:

Comma delimited format used in spreadsheet applications
http://www.bom.gov.au/fwo/IDV60801/IDV60801.95837.axf

JavaScript Object Notation format (JSON) in row-major order
http://www.bom.gov.au/fwo/IDV60801/IDV60801.95837.json